Pearcy, Arkansas
Current Conditions -  °F | °C
As of 10:32 AM on Friday 19 Dec 2014 (Local Time) from KHOT Reporting Station
Light Rain Light Rain  
Wind Chill: 36°   Ceiling: 500
Heat Index: 41°   Visibility: 4mi
Dew Point: 39°   Wind: 8mph
Humidity: 93%   Direction: 90°E
Pressure: 30.28"   Gusts: NA
Location:  34.43°N, 93.29°W
Report Text: KHOT 191632Z AUTO 09007KT 4SM -RA BR OVC005 05/04 A3028 RMK AO2 RAB12 P0001 T00500039
Loading
Personal Weather Stations






























Interactive Weather Map New forecast layout! Learn more

10-Day Weather Forecast

Advertisements
Track Severe Weather on mobile